Time;durP1;ratioP1;P1;durP2;ratioP2;P2;SDS_P1;SDS_P2;PMS_P1;PMS_P2;Temp;Humidity;BMP_temperature;BMP_pressure;BME280_temperature;BME280_humidity;BME280_pressure;Samples;Min_cycle;Max_cycle;Signal;HPM_P1;HPM_P2
2021/07/15 00:02:16;;;;;;;;;;;;;;;29.94;41.41;100632.69;5098098;28;835;-27
2021/07/15 00:04:41;;;;;;;;;;;;;;;29.91;41.40;100623.06;5098778;28;763;-26
2021/07/15 00:07:07;;;;;;;;;;;;;;;29.86;41.55;100630.19;5098128;28;1917;-32
2021/07/15 00:09:32;;;;;;;;;;;;;;;29.86;41.68;100631.00;5097851;28;763;-26
2021/07/15 00:11:57;;;;;;;;;;;;;;;29.96;41.72;100625.19;5098348;28;915;-33
2021/07/15 00:14:23;;;;;;;;;;;;;;;29.88;41.76;100625.38;5098509;28;815;-29
2021/07/15 00:16:51;;;;;;;;;;;;;;;29.80;42.09;100624.53;5097938;28;819;-32
2021/07/15 00:19:18;;;;;;;;;;;;;;;29.82;41.93;100619.75;5098280;28;788;-26
2021/07/15 00:21:44;;;;;;;;;;;;;;;29.85;41.71;100607.63;5098004;28;759;-25
2021/07/15 00:24:09;;;;;;;;;;;;;;;29.86;41.91;100616.63;5079429;28;1019;-31
2021/07/15 00:26:34;;;;;;;;;;;;;;;29.94;41.81;100611.00;5097657;28;1970;-26
2021/07/15 00:29:00;;;;;;;;;;;;;;;29.85;41.92;100607.63;5098016;28;755;-31
2021/07/15 00:31:25;;;;;;;;;;;;;;;29.80;42.10;100610.13;5096861;28;814;-25
2021/07/15 00:33:50;;;;;;;;;;;;;;;29.85;41.84;100610.34;5097537;28;874;-33
2021/07/15 00:36:15;;;;;;;;;;;;;;;29.79;42.17;100613.88;5097904;28;772;-29
2021/07/15 00:38:41;;;;;;;;;;;;;;;29.87;42.15;100612.84;5097471;28;999;-34
2021/07/15 00:41:06;;;;;;;;;;;;;;;29.90;42.11;100621.41;5097478;28;950;-33
2021/07/15 00:43:31;;;;;;;;;;;;;;;29.81;42.33;100619.94;5098034;28;792;-33
2021/07/15 00:45:57;;;;;;;;;;;;;;;29.82;42.29;100618.91;5097424;28;842;-26
2021/07/15 00:48:22;;;;;;;;;;;;;;;29.82;42.50;100625.16;5079310;28;1902;-28
2021/07/15 00:50:47;;;;;;;;;;;;;;;29.75;42.72;100620.75;5094637;28;1091;-34
2021/07/15 00:53:13;;;;;;;;;;;;;;;29.81;42.48;100626.19;5077396;28;737;-26
2021/07/15 00:58:42;;;;;;;;;;;;;;;29.87;42.42;100608.28;5054979;28;1073;-28
2021/07/15 01:01:09;;;;;;;;;;;;;;;29.80;42.88;100610.97;5055053;28;895;-25
2021/07/15 01:03:34;;;;;;;;;;;;;;;29.83;42.55;100604.28;5076649;28;856;-33
2021/07/15 01:06:00;;;;;;;;;;;;;;;29.92;42.79;100610.38;5077334;28;780;-37
2021/07/15 01:08:25;;;;;;;;;;;;;;;29.75;43.26;100607.19;5076632;28;1906;-28
2021/07/15 01:10:54;;;;;;;;;;;;;;;29.87;42.92;100604.72;5059623;28;924;-32
2021/07/15 01:13:35;;;;;;;;;;;;;;;29.78;42.82;100609.50;5097134;28;726;-38
2021/07/15 01:16:00;;;;;;;;;;;;;;;29.80;42.93;100604.69;5096967;28;795;-30
2021/07/15 01:18:28;;;;;;;;;;;;;;;29.75;42.92;100601.75;5097321;28;828;-33
2021/07/15 01:21:03;;;;;;;;;;;;;;;29.80;42.79;100600.13;5097139;28;767;-36
2021/07/15 01:23:47;;;;;;;;;;;;;;;29.83;43.00;100604.28;5096675;28;744;-29
2021/07/15 01:26:20;;;;;;;;;;;;;;;29.82;42.78;100608.91;5096781;28;962;-29
2021/07/15 01:29:04;;;;;;;;;;;;;;;29.81;42.86;100601.78;5079663;28;1901;-26
2021/07/15 01:31:30;;;;;;;;;;;;;;;29.77;42.95;100603.25;5096475;28;792;-30
2021/07/15 01:33:55;;;;;;;;;;;;;;;29.80;42.96;100608.25;5079025;28;756;-27
2021/07/15 01:36:22;;;;;;;;;;;;;;;29.87;42.54;100607.44;5078789;28;856;-30
2021/07/15 01:38:48;;;;;;;;;;;;;;;29.94;42.32;100600.16;5096371;28;787;-29
2021/07/15 01:41:14;;;;;;;;;;;;;;;29.80;42.70;100602.00;5096640;28;994;-26
2021/07/15 01:43:43;;;;;;;;;;;;;;;29.77;42.82;100597.81;5078455;28;812;-23
2021/07/15 01:46:08;;;;;;;;;;;;;;;29.90;42.60;100590.75;5078421;28;812;-26
2021/07/15 01:48:33;;;;;;;;;;;;;;;29.86;42.46;100587.63;5094052;28;1890;-28
2021/07/15 01:50:59;;;;;;;;;;;;;;;29.88;42.71;100593.66;5112152;28;1150;-27
2021/07/15 01:53:24;;;;;;;;;;;;;;;29.76;42.95;100592.59;5096388;28;716;-33
2021/07/15 01:55:49;;;;;;;;;;;;;;;29.86;42.58;100587.63;5096748;28;994;-25
2021/07/15 01:58:15;;;;;;;;;;;;;;;29.78;42.68;100588.63;5078983;28;804;-25
2021/07/15 02:00:40;;;;;;;;;;;;;;;29.83;42.56;100590.72;5078318;28;804;-26
2021/07/15 02:03:06;;;;;;;;;;;;;;;29.77;42.75;100591.56;5078597;28;807;-26
2021/07/15 02:05:31;;;;;;;;;;;;;;;29.82;42.66;100589.06;5096609;28;847;-28
2021/07/15 02:07:56;;;;;;;;;;;;;;;29.81;42.54;100593.66;5096128;28;1909;-27
2021/07/15 02:10:22;;;;;;;;;;;;;;;29.79;42.73;100597.63;5096875;28;807;-27
2021/07/15 02:12:47;;;;;;;;;;;;;;;29.77;42.74;100594.28;5114075;28;887;-25
2021/07/15 02:15:13;;;;;;;;;;;;;;;29.80;42.73;100600.13;5098640;28;799;-26
2021/07/15 02:17:41;;;;;;;;;;;;;;;29.81;42.84;100595.53;5098745;28;784;-26
2021/07/15 02:20:08;;;;;;;;;;;;;;;29.93;42.66;100601.19;5116575;28;819;-24
2021/07/15 02:22:39;;;;;;;;;;;;;;;29.86;42.99;100601.19;5116646;28;743;-30
2021/07/15 02:25:05;;;;;;;;;;;;;;;29.85;42.85;100598.66;5099116;28;764;-30
2021/07/15 02:27:31;;;;;;;;;;;;;;;29.84;43.00;100603.25;5100942;28;2008;-26
2021/07/15 02:29:56;;;;;;;;;;;;;;;29.84;43.13;100603.25;5095895;28;1022;-27
2021/07/15 02:32:21;;;;;;;;;;;;;;;29.85;42.95;100599.50;5096340;28;827;-25
2021/07/15 02:34:47;;;;;;;;;;;;;;;29.85;42.89;100601.38;5096403;28;839;-26
2021/07/15 02:37:12;;;;;;;;;;;;;;;29.82;42.78;100595.34;5096156;28;795;-28
2021/07/15 02:39:37;;;;;;;;;;;;;;;29.87;42.75;100592.00;5078103;28;844;-25
2021/07/15 02:42:03;;;;;;;;;;;;;;;29.86;42.77;100592.22;5107272;28;990;-27
2021/07/15 02:44:28;;;;;;;;;;;;;;;29.86;42.77;100593.06;5116241;28;1030;-26
2021/07/15 02:46:53;;;;;;;;;;;;;;;29.77;43.03;100589.69;5096985;28;1965;-30
2021/07/15 02:49:19;;;;;;;;;;;;;;;29.80;42.96;100594.69;5096606;28;748;-36
2021/07/15 02:51:44;;;;;;;;;;;;;;;29.87;42.92;100594.72;5085194;28;1040;-26
2021/07/15 02:54:09;;;;;;;;;;;;;;;29.76;43.18;100598.03;5076482;28;784;-26
2021/07/15 02:56:43;;;;;;;;;;;;;;;29.86;42.96;100587.63;5086652;28;912;-28
2021/07/15 02:59:11;;;;;;;;;;;;;;;29.84;42.88;100589.72;5081680;28;804;-29
2021/07/15 03:01:43;;;;;;;;;;;;;;;29.81;42.95;100582.81;5081159;28;788;-27
2021/07/15 03:04:14;;;;;;;;;;;;;;;29.76;43.05;100585.28;5099713;28;1013;-26
2021/07/15 03:06:40;;;;;;;;;;;;;;;29.80;42.97;100583.00;5099398;28;1972;-30
2021/07/15 03:09:13;;;;;;;;;;;;;;;29.87;42.61;100586.59;5081323;28;748;-26
2021/07/15 03:11:43;;;;;;;;;;;;;;;29.79;43.00;100584.91;5080607;28;994;-34
2021/07/15 03:14:11;;;;;;;;;;;;;;;29.77;43.21;100586.97;5099587;28;756;-27
2021/07/15 03:16:37;;;;;;;;;;;;;;;29.37;39.11;100582.25;5099536;28;803;-23
2021/07/15 03:19:06;;;;;;;;;;;;;;;29.04;38.54;100585.63;5081366;28;820;-36
2021/07/15 03:21:32;;;;;;;;;;;;;;;28.81;38.44;100579.44;5098798;28;839;-29
2021/07/15 03:23:57;;;;;;;;;;;;;;;28.61;38.86;100582.03;5099262;28;776;-26
2021/07/15 03:26:22;;;;;;;;;;;;;;;28.04;41.24;100588.19;5075163;28;935;-26
2021/07/15 03:28:48;;;;;;;;;;;;;;;28.12;39.79;100587.22;5060572;28;1906;-23
2021/07/15 03:31:13;;;;;;;;;;;;;;;28.08;38.96;100581.34;5061572;28;788;-26
2021/07/15 03:33:39;;;;;;;;;;;;;;;28.04;38.88;100587.34;5078707;28;768;-32
2021/07/15 03:36:05;;;;;;;;;;;;;;;28.06;38.69;100582.59;5059958;28;845;-31
2021/07/15 03:38:32;;;;;;;;;;;;;;;28.31;37.91;100587.59;5060475;28;1100;-26
2021/07/15 03:40:59;;;;;;;;;;;;;;;27.84;39.53;100587.97;5081166;28;963;-25
2021/07/15 03:43:24;;;;;;;;;;;;;;;27.91;39.03;100586.16;5079593;28;946;-24
2021/07/15 03:45:50;;;;;;;;;;;;;;;27.71;38.76;100588.69;5098833;28;862;-24
2021/07/15 03:48:15;;;;;;;;;;;;;;;27.68;39.36;100587.19;5092212;28;1913;-23
2021/07/15 03:50:41;;;;;;;;;;;;;;;27.69;39.35;100588.03;5134663;27;849;-25
2021/07/15 03:53:06;;;;;;;;;;;;;;;27.62;39.62;100591.47;5098097;28;879;-30
2021/07/15 03:55:34;;;;;;;;;;;;;;;27.40;39.38;100593.28;5097098;28;956;-34
2021/07/15 03:58:02;;;;;;;;;;;;;;;27.08;40.06;100592.63;5118145;28;1348;-26
2021/07/15 04:00:27;;;;;;;;;;;;;;;27.46;39.83;100591.69;5099252;28;1285;-26
2021/07/15 04:02:56;;;;;;;;;;;;;;;28.18;38.47;100593.69;5118922;28;855;-25
2021/07/15 04:05:21;;;;;;;;;;;;;;;28.03;38.20;100548.63;5100035;28;955;-27
2021/07/15 04:07:47;;;;;;;;;;;;;;;27.80;39.81;100602.91;5118920;28;1917;-27
2021/07/15 04:10:12;;;;;;;;;;;;;;;28.11;38.97;100605.28;5100608;28;752;-29
2021/07/15 04:12:37;;;;;;;;;;;;;;;28.18;39.34;100609.91;5118245;28;954;-27
2021/07/15 04:15:03;;;;;;;;;;;;;;;27.96;39.33;100607.25;5100011;28;1300;-35
2021/07/15 04:17:29;;;;;;;;;;;;;;;27.94;39.22;100607.44;5118723;28;886;-28
2021/07/15 04:19:59;;;;;;;;;;;;;;;28.07;39.27;100612.13;5100651;28;811;-24
2021/07/15 04:22:24;;;;;;;;;;;;;;;28.01;39.03;100602.06;5100862;28;779;-24
2021/07/15 04:24:50;;;;;;;;;;;;;;;27.94;38.72;100609.28;5118196;28;807;-24
2021/07/15 04:27:15;;;;;;;;;;;;;;;27.79;38.60;100610.19;5099652;28;1968;-26
2021/07/15 04:29:40;;;;;;;;;;;;;;;28.01;37.62;100614.78;5100179;28;853;-33
2021/07/15 04:32:07;;;;;;;;;;;;;;;28.28;37.51;100606.91;5099888;28;843;-24
2021/07/15 04:34:33;;;;;;;;;;;;;;;28.10;37.96;100609.03;5100237;28;855;-29
2021/07/15 04:36:58;;;;;;;;;;;;;;;28.28;38.15;100606.91;5118141;28;815;-34
2021/07/15 04:39:26;;;;;;;;;;;;;;;28.44;38.14;100612.09;5117888;28;744;-23
2021/07/15 04:41:51;;;;;;;;;;;;;;;28.54;38.06;100609.03;5107751;28;950;-26
2021/07/15 04:44:17;;;;;;;;;;;;;;;28.79;37.70;100616.72;5079256;28;764;-29
2021/07/15 04:46:42;;;;;;;;;;;;;;;28.67;38.07;100611.00;5080079;28;803;-29
2021/07/15 04:49:07;;;;;;;;;;;;;;;28.89;38.08;100615.50;5059814;28;1902;-25
2021/07/15 04:51:33;;;;;;;;;;;;;;;28.74;37.96;100602.94;5085793;28;1167;-24
2021/07/15 04:53:58;;;;;;;;;;;;;;;28.89;38.17;100610.09;5079567;28;756;-24
2021/07/15 04:56:23;;;;;;;;;;;;;;;29.01;38.23;100611.22;5097167;28;930;-25
2021/07/15 04:58:49;;;;;;;;;;;;;;;29.13;38.11;100614.22;5078666;28;827;-25
2021/07/15 05:01:14;;;;;;;;;;;;;;;29.17;38.40;100610.09;5079689;28;871;-25
2021/07/15 05:03:39;;;;;;;;;;;;;;;29.13;38.69;100616.91;5097093;28;756;-30
2021/07/15 05:06:06;;;;;;;;;;;;;;;29.07;38.96;100610.44;5097301;28;763;-30
2021/07/15 05:08:31;;;;;;;;;;;;;;;29.29;38.57;100620.34;5097287;28;1971;-32
2021/07/15 05:10:56;;;;;;;;;;;;;;;29.02;38.93;100618.34;5097114;28;919;-37
2021/07/15 05:13:22;;;;;;;;;;;;;;;29.13;38.91;100613.41;5096713;28;879;-26
2021/07/15 05:15:47;;;;;;;;;;;;;;;29.09;39.48;100607.53;5097318;28;775;-25
2021/07/15 05:18:13;;;;;;;;;;;;;;;29.09;39.79;100610.25;5096641;28;732;-27
2021/07/15 05:20:38;;;;;;;;;;;;;;;29.20;39.78;100606.97;5096921;28;847;-32
2021/07/15 05:23:03;;;;;;;;;;;;;;;29.29;39.46;100614.94;5097333;28;776;-24
2021/07/15 05:25:28;;;;;;;;;;;;;;;29.36;39.58;100613.09;5096937;28;919;-29
2021/07/15 05:27:54;;;;;;;;;;;;;;;29.28;39.58;100613.28;5096350;28;1972;-27
2021/07/15 05:30:19;;;;;;;;;;;;;;;29.19;39.92;100612.59;5097105;28;843;-33
2021/07/15 05:32:44;;;;;;;;;;;;;;;29.20;40.09;100615.09;5096711;28;783;-33
2021/07/15 05:35:10;;;;;;;;;;;;;;;29.18;40.04;100611.75;5096456;28;779;-35
2021/07/15 05:37:35;;;;;;;;;;;;;;;29.19;39.85;100607.19;5096709;28;1480;-25
2021/07/15 05:40:00;;;;;;;;;;;;;;;29.26;39.50;100608.03;5097145;28;778;-30
2021/07/15 05:42:26;;;;;;;;;;;;;;;29.21;39.71;100607.81;5096356;28;839;-31
2021/07/15 05:44:52;;;;;;;;;;;;;;;29.34;39.19;100609.75;5096980;28;796;-31
2021/07/15 05:47:18;;;;;;;;;;;;;;;29.48;38.66;100612.50;5096269;28;1982;-31
2021/07/15 05:49:44;;;;;;;;;;;;;;;29.36;39.02;100614.97;5096891;28;986;-29
2021/07/15 05:52:11;;;;;;;;;;;;;;;29.34;39.62;100615.97;5096846;28;1143;-29
2021/07/15 05:54:36;;;;;;;;;;;;;;;29.43;39.45;100618.50;5096537;28;784;-31
2021/07/15 05:57:01;;;;;;;;;;;;;;;29.52;39.07;100613.75;5096046;28;958;-29
2021/07/15 05:59:27;;;;;;;;;;;;;;;29.53;39.06;100618.16;5096924;28;875;-24
2021/07/15 06:01:52;;;;;;;;;;;;;;;29.18;39.52;100616.31;5096461;28;1582;-28
2021/07/15 06:04:17;;;;;;;;;;;;;;;29.22;39.53;100612.19;5096544;28;771;-30
2021/07/15 06:06:43;;;;;;;;;;;;;;;29.34;39.35;100610.56;5096664;28;882;-25
2021/07/15 06:09:08;;;;;;;;;;;;;;;29.26;39.68;100618.03;5096348;28;1902;-32
2021/07/15 06:11:33;;;;;;;;;;;;;;;28.82;40.90;100615.47;5096319;28;986;-24
2021/07/15 06:13:58;;;;;;;;;;;;;;;29.13;40.52;100607.97;5096494;28;795;-24
2021/07/15 06:16:24;;;;;;;;;;;;;;;28.63;41.05;100604.28;5096503;28;863;-24
2021/07/15 06:18:49;;;;;;;;;;;;;;;29.17;39.91;100607.38;5096785;28;759;-32
2021/07/15 06:21:14;;;;;;;;;;;;;;;29.29;39.79;100607.66;5095862;28;800;-26
2021/07/15 06:23:39;;;;;;;;;;;;;;;29.48;39.10;100609.81;5096620;28;775;-30
2021/07/15 06:26:05;;;;;;;;;;;;;;;29.09;40.11;100600.22;5096442;28;947;-30
2021/07/15 06:28:30;;;;;;;;;;;;;;;29.49;39.23;100601.47;5095739;28;1897;-31
2021/07/15 06:30:56;;;;;;;;;;;;;;;29.20;39.42;100601.56;5099749;28;827;-25
2021/07/15 06:33:21;;;;;;;;;;;;;;;29.75;38.11;100599.06;5100531;28;764;-32
2021/07/15 06:35:50;;;;;;;;;;;;;;;29.58;38.74;100597.53;5099390;28;806;-25
2021/07/15 06:38:15;;;;;;;;;;;;;;;29.70;38.85;100600.53;5100438;28;749;-24
2021/07/15 06:40:42;;;;;;;;;;;;;;;29.77;38.59;100595.13;5100241;28;946;-28
2021/07/15 06:43:07;;;;;;;;;;;;;;;29.77;38.68;100588.84;5099629;28;771;-28
2021/07/15 06:45:32;;;;;;;;;;;;;;;26.07;43.27;100589.16;5100140;28;831;-25
2021/07/15 06:47:57;;;;;;;;;;;;;;;23.76;47.51;100583.91;5099870;28;1917;-31
2021/07/15 06:50:23;;;;;;;;;;;;;;;23.58;47.84;100584.03;5099567;28;791;-23
2021/07/15 06:52:48;;;;;;;;;;;;;;;23.03;48.26;100578.91;5100009;28;1138;-30
2021/07/15 06:55:14;;;;;;;;;;;;;;;22.05;49.87;100578.84;5100008;28;821;-23
2021/07/15 06:57:39;;;;;;;;;;;;;;;21.48;51.12;100575.38;5098846;28;947;-32
2021/07/15 07:00:09;;;;;;;;;;;;;;;21.21;51.89;100577.03;5099750;28;842;-23
2021/07/15 07:02:36;;;;;;;;;;;;;;;21.01;51.69;100569.09;5099785;28;756;-26
2021/07/15 07:05:02;;;;;;;;;;;;;;;21.11;51.50;100565.53;5099783;28;740;-29
2021/07/15 07:07:27;;;;;;;;;;;;;;;20.98;51.68;100560.50;5099943;28;1905;-23
2021/07/15 07:09:52;;;;;;;;;;;;;;;20.71;51.70;100556.75;5079439;28;985;-26
2021/07/15 07:12:19;;;;;;;;;;;;;;;20.58;52.01;100557.06;5092252;28;919;-31
2021/07/15 07:14:44;;;;;;;;;;;;;;;20.53;52.32;100558.34;5099606;28;1392;-30
2021/07/15 07:17:09;;;;;;;;;;;;;;;20.57;51.77;100558.88;5099074;28;866;-29
2021/07/15 07:19:35;;;;;;;;;;;;;;;20.44;51.57;100556.53;5099282;28;799;-30
2021/07/15 07:22:00;;;;;;;;;;;;;;;20.42;52.08;100558.50;5084368;28;961;-29
2021/07/15 07:24:25;;;;;;;;;;;;;;;20.21;51.86;100556.84;5078941;28;749;-26
2021/07/15 07:26:51;;;;;;;;;;;;;;;20.26;52.07;100551.06;5088080;28;1968;-32
2021/07/15 07:29:16;;;;;;;;;;;;;;;20.16;52.32;100553.72;5099450;28;815;-24
2021/07/15 07:31:42;;;;;;;;;;;;;;;20.16;54.62;100557.25;5099233;28;763;-33
2021/07/15 07:34:07;;;;;;;;;;;;;;;20.25;51.39;100555.56;5099239;28;775;-24
2021/07/15 07:36:33;;;;;;;;;;;;;;;20.07;51.62;100552.75;5099201;28;795;-22
2021/07/15 07:38:58;;;;;;;;;;;;;;;20.12;51.39;100552.34;5098915;28;818;-24
2021/07/15 07:41:23;;;;;;;;;;;;;;;19.96;51.94;100545.69;5073914;28;991;-22
2021/07/15 07:43:48;;;;;;;;;;;;;;;20.02;51.77;100549.66;5078725;28;1429;-32
2021/07/15 07:46:14;;;;;;;;;;;;;;;20.08;51.57;100549.09;5078558;28;799;-26
2021/07/15 07:48:39;;;;;;;;;;;;;;;20.05;51.79;100555.56;5094351;28;1989;-35
2021/07/15 07:51:04;;;;;;;;;;;;;;;20.05;51.12;100555.56;5104197;28;1151;-32
2021/07/15 07:53:30;;;;;;;;;;;;;;;19.90;51.18;100557.75;5119254;28;787;-30
2021/07/15 07:55:55;;;;;;;;;;;;;;;19.82;51.53;100547.78;5118526;28;831;-23
2021/07/15 07:58:20;;;;;;;;;;;;;;;19.85;51.74;100560.03;5119134;28;781;-24
2021/07/15 08:00:46;;;;;;;;;;;;;;;19.84;51.12;100552.97;5119032;28;860;-29
2021/07/15 08:03:11;;;;;;;;;;;;;;;19.73;51.58;100547.78;5119388;28;835;-33
2021/07/15 08:05:39;;;;;;;;;;;;;;;19.73;51.24;100553.13;5119095;28;779;-22
2021/07/15 08:08:05;;;;;;;;;;;;;;;19.91;50.99;100561.28;5118461;28;1909;-27
2021/07/15 08:10:30;;;;;;;;;;;;;;;19.86;50.64;100558.19;5118408;28;800;-33
2021/07/15 08:12:56;;;;;;;;;;;;;;;19.68;51.21;100558.88;5118403;28;1042;-23
2021/07/15 08:15:21;;;;;;;;;;;;;;;19.58;51.68;100557.00;5118931;28;835;-35
2021/07/15 08:17:47;;;;;;;;;;;;;;;19.72;51.52;100562.13;5118496;28;827;-28
2021/07/15 08:20:12;;;;;;;;;;;;;;;19.74;51.32;100554.78;5118281;28;871;-24
2021/07/15 08:22:38;;;;;;;;;;;;;;;19.67;51.16;100552.69;5118473;28;776;-23
2021/07/15 08:25:04;;;;;;;;;;;;;;;19.72;51.16;100552.25;5118683;28;749;-23
2021/07/15 08:27:29;;;;;;;;;;;;;;;19.56;51.57;100547.47;5118477;28;1906;-33
2021/07/15 08:29:54;;;;;;;;;;;;;;;19.48;51.80;100553.50;5118482;28;843;-26
2021/07/15 08:32:21;;;;;;;;;;;;;;;19.60;51.04;100548.88;5118146;28;771;-23
2021/07/15 08:34:46;;;;;;;;;;;;;;;19.62;50.72;100552.25;5118084;28;801;-27
2021/07/15 08:37:11;;;;;;;;;;;;;;;19.58;50.10;100546.34;5118477;28;751;-36
2021/07/15 08:39:36;;;;;;;;;;;;;;;19.51;50.23;100555.88;5118174;28;834;-31
2021/07/15 08:42:02;;;;;;;;;;;;;;;19.58;50.75;100550.84;5117669;28;997;-25
2021/07/15 08:44:27;;;;;;;;;;;;;;;19.66;51.59;100552.81;5118175;28;807;-25
2021/07/15 08:46:53;;;;;;;;;;;;;;;19.83;50.80;100552.13;5116539;28;1985;-27
2021/07/15 08:49:19;;;;;;;;;;;;;;;19.77;51.04;100557.22;5079232;28;816;-27
2021/07/15 08:51:44;;;;;;;;;;;;;;;19.70;50.72;100547.06;5087021;28;1206;-27
2021/07/15 08:54:12;;;;;;;;;;;;;;;19.57;50.65;100544.66;5077085;28;764;-40
2021/07/15 08:56:37;;;;;;;;;;;;;;;19.68;50.19;100538.38;5084492;28;935;-27
2021/07/15 08:59:09;;;;;;;;;;;;;;;19.83;50.60;100545.97;5097570;28;748;-29
2021/07/15 09:01:34;;;;;;;;;;;;;;;19.94;49.42;100545.84;5097558;28;744;-26
2021/07/15 09:04:00;;;;;;;;;;;;;;;19.92;49.17;100544.28;5097459;28;736;-41
2021/07/15 09:06:25;;;;;;;;;;;;;;;19.89;49.60;100540.06;5097649;28;776;-24
2021/07/15 09:08:54;;;;;;;;;;;;;;;19.58;50.50;100538.31;5078622;28;1902;-41
2021/07/15 09:11:20;;;;;;;;;;;;;;;19.48;50.49;100544.63;5077397;28;1527;-35
2021/07/15 09:13:45;;;;;;;;;;;;;;;19.64;49.84;100536.94;5097459;28;792;-39
2021/07/15 09:16:12;;;;;;;;;;;;;;;19.91;50.27;100534.59;5097936;28;791;-38
2021/07/15 09:18:53;;;;;;;;;;;;;;;19.94;49.28;100534.31;5078212;28;885;-27
2021/07/15 09:21:22;;;;;;;;;;;;;;;19.90;49.09;100535.59;5097133;28;804;-34
2021/07/15 09:23:47;;;;;;;;;;;;;;;19.91;49.48;100531.91;5097234;28;783;-27
2021/07/15 09:26:13;;;;;;;;;;;;;;;20.17;48.83;100534.03;5096689;28;836;-24
2021/07/15 09:28:38;;;;;;;;;;;;;;;20.08;48.91;100532.22;5078665;28;1968;-37
2021/07/15 09:31:33;;;;;;;;;;;;;;;19.92;49.31;100530.91;5097084;28;756;-29
2021/07/15 09:33:58;;;;;;;;;;;;;;;20.19;48.87;100534.75;5079302;28;1454;-28
2021/07/15 09:36:24;;;;;;;;;;;;;;;20.17;48.85;100540.25;5078804;28;792;-28
2021/07/15 09:38:49;;;;;;;;;;;;;;;21.32;48.69;100538.53;5096683;28;768;-25
2021/07/15 09:41:15;;;;;;;;;;;;;;;20.59;48.40;100527.53;5096746;28;994;-25
2021/07/15 09:43:41;;;;;;;;;;;;;;;19.61;49.95;100531.03;5097127;28;787;-34
2021/07/15 09:46:12;;;;;;;;;;;;;;;19.35;50.14;100528.88;5097071;28;829;-24
2021/07/15 09:48:38;;;;;;;;;;;;;;;19.08;50.42;100526.63;5096533;28;1906;-25
2021/07/15 09:51:04;;;;;;;;;;;;;;;18.95;50.58;100531.38;5096682;28;1202;-34
2021/07/15 09:53:30;;;;;;;;;;;;;;;18.84;51.03;100522.50;5078650;28;1311;-29
2021/07/15 09:56:31;;;;;;;;;;;;;;;19.49;49.48;100523.16;5096299;28;859;-27
2021/07/15 09:58:56;;;;;;;;;;;;;;;20.41;45.73;100528.28;5014653;28;1469;-23
2021/07/15 10:01:22;;;;;;;;;;;;;;;20.65;44.62;100523.44;5078743;28;1136;-39
2021/07/15 10:03:48;;;;;;;;;;;;;;;21.52;44.01;100517.84;5097180;28;791;-38
2021/07/15 10:06:14;;;;;;;;;;;;;;;23.68;41.09;100517.59;5101007;28;808;-26
2021/07/15 10:08:40;;;;;;;;;;;;;;;24.49;40.61;100524.16;5100385;28;1905;-26
2021/07/15 10:11:14;;;;;;;;;;;;;;;24.90;41.28;100512.50;5100164;28;898;-37
2021/07/15 10:13:40;;;;;;;;;;;;;;;25.30;41.64;100517.03;5100681;28;807;-26
2021/07/15 10:16:06;;;;;;;;;;;;;;;25.60;41.78;100525.28;5100478;28;851;-28
2021/07/15 10:18:34;;;;;;;;;;;;;;;25.90;41.70;100525.44;5100552;28;863;-28
2021/07/15 10:20:59;;;;;;;;;;;;;;;26.23;41.87;100524.31;5100265;28;809;-27
2021/07/15 10:23:29;;;;;;;;;;;;;;;26.50;41.11;100521.22;5100311;28;824;-24
2021/07/15 10:25:54;;;;;;;;;;;;;;;26.80;40.52;100529.34;5099852;28;899;-24
2021/07/15 10:28:19;;;;;;;;;;;;;;;27.07;40.30;100531.59;5082544;28;1963;-35
2021/07/15 10:30:45;;;;;;;;;;;;;;;27.25;39.71;100540.13;5099578;28;1519;-24
2021/07/15 10:33:10;;;;;;;;;;;;;;;27.57;39.31;100542.56;5100348;28;1456;-25
2021/07/15 10:35:35;;;;;;;;;;;;;;;27.70;38.84;100531.09;5082032;28;1282;-37
2021/07/15 10:38:03;;;;;;;;;;;;;;;27.91;38.57;100531.28;5082022;28;827;-25
2021/07/15 10:40:28;;;;;;;;;;;;;;;27.98;38.54;100522.19;5082159;28;795;-38
2021/07/15 10:42:54;;;;;;;;;;;;;;;28.14;38.28;100528.38;5081492;28;1002;-28
2021/07/15 10:45:19;;;;;;;;;;;;;;;28.17;38.33;100530.69;5082074;28;867;-26
2021/07/15 10:47:45;;;;;;;;;;;;;;;28.22;38.59;100527.38;5100171;28;1910;-39
2021/07/15 10:50:10;;;;;;;;;;;;;;;28.09;38.58;100531.63;5101322;28;1385;-24
2021/07/15 10:52:36;;;;;;;;;;;;;;;28.15;38.53;100532.72;5099820;28;1054;-34
2021/07/15 10:55:02;;;;;;;;;;;;;;;28.22;38.50;100522.81;5080499;28;810;-37
2021/07/15 10:57:27;;;;;;;;;;;;;;;28.25;38.13;100529.69;5099137;28;943;-33
2021/07/15 10:59:52;;;;;;;;;;;;;;;28.44;38.04;100530.91;5081271;28;779;-25
2021/07/15 11:02:22;;;;;;;;;;;;;;;28.63;37.86;100530.41;5098276;28;854;-25
2021/07/15 11:04:47;;;;;;;;;;;;;;;28.78;37.77;100522.97;5099254;28;788;-34
2021/07/15 11:07:27;;;;;;;;;;;;;;;28.87;37.58;100525.53;5099186;28;1905;-36
2021/07/15 11:09:54;;;;;;;;;;;;;;;28.85;37.35;100525.72;5098423;28;950;-45
2021/07/15 11:12:46;;;;;;;;;;;;;;;28.87;36.89;100520.94;5112313;28;977;-38
2021/07/15 11:15:12;;;;;;;;;;;;;;;28.95;36.96;100511.81;5115233;28;1249;-28
2021/07/15 11:17:48;;;;;;;;;;;;;;;29.06;36.83;100511.25;5119682;28;775;-37
2021/07/15 11:20:26;;;;;;;;;;;;;;;29.16;36.63;100513.59;5119946;28;849;-37
2021/07/15 11:22:52;;;;;;;;;;;;;;;29.30;36.97;100510.94;5118659;28;747;-32
2021/07/15 11:25:18;;;;;;;;;;;;;;;29.30;36.78;100511.78;5119144;28;821;-38
2021/07/15 11:27:44;;;;;;;;;;;;;;;29.23;36.89;100518.22;5119186;28;1956;-28
2021/07/15 11:30:10;;;;;;;;;;;;;;;29.00;37.06;100509.38;5118322;28;810;-28
2021/07/15 11:32:36;;;;;;;;;;;;;;;29.17;36.57;100509.88;5118912;28;790;-23
2021/07/15 11:35:01;;;;;;;;;;;;;;;29.24;36.62;100506.34;5119205;28;826;-38
2021/07/15 11:37:26;;;;;;;;;;;;;;;29.16;36.80;100504.66;5119065;28;821;-37
2021/07/15 11:39:52;;;;;;;;;;;;;;;29.17;37.29;100506.31;5118820;28;842;-37
2021/07/15 11:42:18;;;;;;;;;;;;;;;29.45;36.81;100510.75;5099605;28;994;-39
2021/07/15 11:45:19;;;;;;;;;;;;;;;29.45;36.47;100511.59;5117977;28;930;-23
2021/07/15 11:47:51;;;;;;;;;;;;;;;29.17;36.11;100501.75;5047835;28;1999;-23
2021/07/15 11:50:33;;;;;;;;;;;;;;;29.14;36.12;100506.72;5088091;28;935;-24
2021/07/15 11:53:16;;;;;;;;;;;;;;;29.15;36.31;100500.25;5077349;28;830;-29
2021/07/15 11:55:42;;;;;;;;;;;;;;;29.01;36.58;100502.91;5077664;28;813;-26
2021/07/15 11:58:08;;;;;;;;;;;;;;;29.05;36.74;100492.50;5098038;28;802;-34
2021/07/15 12:00:33;;;;;;;;;;;;;;;29.22;36.31;100498.41;5098111;28;833;-33
2021/07/15 12:02:58;;;;;;;;;;;;;;;29.34;36.70;100496.75;5098652;28;815;-32
2021/07/15 12:05:35;;;;;;;;;;;;;;;29.48;36.52;100493.28;5079739;28;779;-26
2021/07/15 12:08:12;;;;;;;;;;;;;;;29.31;36.16;100493.66;5097708;28;1967;-39
2021/07/15 12:10:44;;;;;;;;;;;;;;;29.18;35.98;100489.00;5097453;28;949;-39
2021/07/15 12:13:10;;;;;;;;;;;;;;;29.26;36.14;100488.81;5077796;28;812;-28
2021/07/15 12:15:35;;;;;;;;;;;;;;;29.23;36.32;100488.44;5077306;28;823;-24
2021/07/15 12:18:10;;;;;;;;;;;;;;;29.17;36.16;100479.22;5077744;28;744;-26
2021/07/15 12:20:38;;;;;;;;;;;;;;;29.17;36.62;100481.94;5077518;28;957;-24
2021/07/15 12:23:03;;;;;;;;;;;;;;;29.40;36.41;100486.16;5076765;28;808;-30
2021/07/15 12:25:32;;;;;;;;;;;;;;;29.58;36.38;100480.97;5077020;28;743;-26
2021/07/15 12:27:59;;;;;;;;;;;;;;;29.65;36.29;100481.03;5095430;28;1910;-36
2021/07/15 12:30:37;;;;;;;;;;;;;;;29.49;35.88;100476.81;5097180;28;1542;-32
2021/07/15 12:33:02;;;;;;;;;;;;;;;29.28;35.82;100475.09;5097034;28;850;-27
2021/07/15 12:35:29;;;;;;;;;;;;;;;29.35;35.67;100470.50;5096916;28;893;-36
2021/07/15 12:37:55;;;;;;;;;;;;;;;29.21;36.11;100470.47;5097324;28;817;-28
2021/07/15 12:40:29;;;;;;;;;;;;;;;29.48;35.56;100469.69;5097676;28;811;-34
2021/07/15 12:43:14;;;;;;;;;;;;;;;29.70;35.25;100472.25;5078516;28;955;-41
2021/07/15 12:45:39;;;;;;;;;;;;;;;29.68;35.56;100460.78;5083306;28;758;-39
2021/07/15 12:48:08;;;;;;;;;;;;;;;29.60;36.30;100461.84;5107885;28;1917;-33
2021/07/15 12:50:33;;;;;;;;;;;;;;;29.75;36.12;100466.22;5117679;28;1147;-36
2021/07/15 12:53:11;;;;;;;;;;;;;;;29.84;35.55;100467.69;5117257;28;854;-27
2021/07/15 12:55:36;;;;;;;;;;;;;;;29.69;35.69;100462.47;5117493;28;738;-42
2021/07/15 12:58:02;;;;;;;;;;;;;;;29.85;35.22;100463.94;5117952;28;938;-26